Portel — CSSV — position and weather

sailwx.info

Track history (hours):
 
Tides and Currents Weather Stations Pressure Air Temp Water Temp Dewpoint Dewpoint Depression Visibility Wind Speed Wind Dir Waves Ship Positions

Portel

Last reported at 2018-Apr-19 06:01 UTC. Time now 2018-Apr-19 21:03 UTC.
Position N 38°42' W 009°10'.

Length 33 m.

Type: Tug. MMSI: 263600007.

Date/timePositionNaut miles runAvg speedWind from/ knotsBaromVisibWave heightAir tempDewpointWater temp
2018-Apr-19 06:01N 38°42' W 009°10'0 0.7
2018-Apr-19 05:50N 38°42' W 009°10'1 1.5
2018-Apr-19 05:21N 38°42' W 009°09'2 1.1
2018-Apr-19 03:16N 38°41' W 009°12'2 5.6
2018-Apr-19 03:00N 38°41' W 009°14'0 0.5
2018-Apr-19 02:30N 38°41' W 009°14'0 0.1
2018-Apr-19 01:56N 38°41' W 009°14'2 5.0
2018-Apr-19 01:26N 38°41' W 009°11'1 0.6
2018-Apr-18 23:19N 38°42' W 009°10'1 1.7
2018-Apr-18 22:58N 38°42' W 009°10'0 0.0
2018-Apr-18 22:25N 38°42' W 009°10'1 0.2
2018-Apr-18 19:23N 38°42' W 009°10'0 0.0
2018-Apr-18 18:53N 38°42' W 009°10'1 0.1
2018-Apr-18 12:20N 38°42' W 009°08'1 0.7
2018-Apr-18 11:27N 38°42' W 009°08'2 0.1
2018-Apr-16 15:14N 38°40' W 009°08'0 0.6
2018-Apr-16 14:59N 38°40' W 009°08'0 0.7
2018-Apr-16 14:19N 38°40' W 009°09'0 0.1
2018-Apr-16 14:00N 38°40' W 009°09'1 1.0
2018-Apr-16 13:24N 38°41' W 009°08'2 0.5
2018-Apr-16 09:41N 38°42' W 009°10'1 3.8
2018-Apr-16 09:26N 38°41' W 009°10'1 1.1
2018-Apr-16 08:42N 38°41' W 009°11'1 3.8
2018-Apr-16 08:29N 38°41' W 009°12'2 4.2
2018-Apr-16 08:00N 38°41' W 009°15'1 3.0
2018-Apr-16 07:30N 38°41' W 009°17'3 6.7
2018-Apr-16 06:59N 38°39' W 009°20'4 8.1
2018-Apr-16 06:30N 38°35' W 009°23'5 9.8
2018-Apr-16 05:57N 38°30' W 009°20'4 9.9
2018-Apr-16 05:30N 38°27' W 009°17'10 9.0
2018-Apr-16 04:26N 38°25' W 009°05'510.3
2018-Apr-16 03:58N 38°26' W 008°59'1 0.2
2018-Apr-15 23:50N 38°27' W 008°59'3 9.4
2018-Apr-15 23:29N 38°26' W 009°02'9 9.4
2018-Apr-15 22:35N 38°24' W 009°13'2 9.3
2018-Apr-15 22:25N 38°25' W 009°15'4 9.9
2018-Apr-15 21:58N 38°28' W 009°18'5 9.9
2018-Apr-15 21:26N 38°33' W 009°21'4 9.8
2018-Apr-15 21:00N 38°37' W 009°23'611.6
2018-Apr-15 20:29N 38°41' W 009°17'6 8.4
2018-Apr-15 19:49N 38°42' W 009°10'0 0.0
2018-Apr-15 19:25N 38°42' W 009°10'0 0.0
2018-Apr-14 08:40N 38°42' W 009°10'1 3.3
2018-Apr-14 08:25N 38°42' W 009°11'0 0.0
2018-Apr-13 19:22N 38°41' W 009°11'2 4.2
2018-Apr-13 18:46N 38°41' W 009°14'0 0.1
2018-Apr-13 18:24N 38°40' W 009°14'1 1.6
2018-Apr-13 17:59N 38°41' W 009°13'3 1.2
2018-Apr-13 15:30N 38°42' W 009°10'0 0.2
2018-Apr-13 14:39N 38°42' W 009°09'1 6.6
2018-Apr-13 14:27N 38°42' W 009°08'0 0.3
2018-Apr-13 13:55N 38°42' W 009°08'0 0.2
2018-Apr-13 13:27N 38°42' W 009°08'0 0.5
2018-Apr-13 12:47N 38°42' W 009°08'1 0.3
2018-Apr-13 11:05N 38°43' W 009°08'1 4.6
2018-Apr-13 10:54N 38°42' W 009°08'3 1.8
2018-Apr-13 09:11N 38°41' W 009°04'1 4.9
2018-Apr-13 08:57N 38°41' W 009°05'2 5.5
2018-Apr-13 08:30N 38°41' W 009°08'1 0.1
2018-Apr-12 09:59N 38°42' W 009°10'0 0.0
2018-Apr-11 07:25N 38°42' W 009°10'1 0.0
2018-Apr-09 10:13N 38°42' W 009°08'2 7.3
2018-Apr-09 10:00N 38°42' W 009°10'0 0.2
2018-Apr-09 09:27N 38°42' W 009°10'0 0.4
2018-Apr-09 08:59N 38°42' W 009°10'  
Track history (hours):
 
Tides and Currents Weather Stations Pressure Air Temp Water Temp Dewpoint Dewpoint Depression Visibility Wind Speed Wind Dir Waves Ship Positions

Portel

Last reported at 2018-Apr-19 06:01 UTC. Time now 2018-Apr-19 21:03 UTC.
Position N 38°42' W 009°10'.

Length 33 m.

Type: Tug. MMSI: 263600007.

Date/timePositionNaut miles runAvg speedWind from/ knotsBaromVisibWave heightAir tempDewpointWater temp
2018-Apr-19 06:01N 38°42' W 009°10'0 0.7
2018-Apr-19 05:50N 38°42' W 009°10'1 1.5
2018-Apr-19 05:21N 38°42' W 009°09'2 1.1
2018-Apr-19 03:16N 38°41' W 009°12'2 5.6
2018-Apr-19 03:00N 38°41' W 009°14'0 0.5
2018-Apr-19 02:30N 38°41' W 009°14'0 0.1
2018-Apr-19 01:56N 38°41' W 009°14'2 5.0
2018-Apr-19 01:26N 38°41' W 009°11'1 0.6
2018-Apr-18 23:19N 38°42' W 009°10'1 1.7
2018-Apr-18 22:58N 38°42' W 009°10'0 0.0
2018-Apr-18 22:25N 38°42' W 009°10'1 0.2
2018-Apr-18 19:23N 38°42' W 009°10'0 0.0
2018-Apr-18 18:53N 38°42' W 009°10'1 0.1
2018-Apr-18 12:20N 38°42' W 009°08'1 0.7
2018-Apr-18 11:27N 38°42' W 009°08'2 0.1
2018-Apr-16 15:14N 38°40' W 009°08'0 0.6
2018-Apr-16 14:59N 38°40' W 009°08'0 0.7
2018-Apr-16 14:19N 38°40' W 009°09'0 0.1
2018-Apr-16 14:00N 38°40' W 009°09'1 1.0
2018-Apr-16 13:24N 38°41' W 009°08'2 0.5
2018-Apr-16 09:41N 38°42' W 009°10'1 3.8
2018-Apr-16 09:26N 38°41' W 009°10'1 1.1
2018-Apr-16 08:42N 38°41' W 009°11'1 3.8
2018-Apr-16 08:29N 38°41' W 009°12'2 4.2
2018-Apr-16 08:00N 38°41' W 009°15'1 3.0
2018-Apr-16 07:30N 38°41' W 009°17'3 6.7
2018-Apr-16 06:59N 38°39' W 009°20'4 8.1
2018-Apr-16 06:30N 38°35' W 009°23'5 9.8
2018-Apr-16 05:57N 38°30' W 009°20'4 9.9
2018-Apr-16 05:30N 38°27' W 009°17'10 9.0
2018-Apr-16 04:26N 38°25' W 009°05'510.3
2018-Apr-16 03:58N 38°26' W 008°59'1 0.2
2018-Apr-15 23:50N 38°27' W 008°59'3 9.4
2018-Apr-15 23:29N 38°26' W 009°02'9 9.4
2018-Apr-15 22:35N 38°24' W 009°13'2 9.3
2018-Apr-15 22:25N 38°25' W 009°15'4 9.9
2018-Apr-15 21:58N 38°28' W 009°18'5 9.9
2018-Apr-15 21:26N 38°33' W 009°21'4 9.8
2018-Apr-15 21:00N 38°37' W 009°23'611.6
2018-Apr-15 20:29N 38°41' W 009°17'6 8.4
2018-Apr-15 19:49N 38°42' W 009°10'0 0.0
2018-Apr-15 19:25N 38°42' W 009°10'0 0.0
2018-Apr-14 08:40N 38°42' W 009°10'1 3.3
2018-Apr-14 08:25N 38°42' W 009°11'0 0.0
2018-Apr-13 19:22N 38°41' W 009°11'2 4.2
2018-Apr-13 18:46N 38°41' W 009°14'0 0.1
2018-Apr-13 18:24N 38°40' W 009°14'1 1.6
2018-Apr-13 17:59N 38°41' W 009°13'3 1.2
2018-Apr-13 15:30N 38°42' W 009°10'0 0.2
2018-Apr-13 14:39N 38°42' W 009°09'1 6.6
2018-Apr-13 14:27N 38°42' W 009°08'0 0.3
2018-Apr-13 13:55N 38°42' W 009°08'0 0.2
2018-Apr-13 13:27N 38°42' W 009°08'0 0.5
2018-Apr-13 12:47N 38°42' W 009°08'1 0.3
2018-Apr-13 11:05N 38°43' W 009°08'1 4.6
2018-Apr-13 10:54N 38°42' W 009°08'3 1.8
2018-Apr-13 09:11N 38°41' W 009°04'1 4.9
2018-Apr-13 08:57N 38°41' W 009°05'2 5.5
2018-Apr-13 08:30N 38°41' W 009°08'1 0.1
2018-Apr-12 09:59N 38°42' W 009°10'0 0.0
2018-Apr-11 07:25N 38°42' W 009°10'1 0.0
2018-Apr-09 10:13N 38°42' W 009°08'2 7.3
2018-Apr-09 10:00N 38°42' W 009°10'0 0.2
2018-Apr-09 09:27N 38°42' W 009°10'0 0.4
2018-Apr-09 08:59N 38°42' W 009°10'  

Dump ship's entire track history